sensor_id;sensor_type;location;lat;lon;timestamp;pressure;altitude;pressure_sealevel;temperature;humidity
58223;BME280;44020;50.890;15.796;2023-06-26T00:01:59;97815.98;;;15.65;85.62
58223;BME280;44020;50.890;15.796;2023-06-26T00:04:26;97812.92;;;15.63;85.52
58223;BME280;44020;50.890;15.796;2023-06-26T00:06:54;97810.21;;;15.59;85.48
58223;BME280;44020;50.890;15.796;2023-06-26T00:09:21;97810.10;;;15.55;85.59
58223;BME280;44020;50.890;15.796;2023-06-26T00:11:49;97808.05;;;15.49;85.73
58223;BME280;44020;50.890;15.796;2023-06-26T00:14:16;97805.53;;;15.48;85.92
58223;BME280;44020;50.890;15.796;2023-06-26T00:16:46;97804.19;;;15.47;86.07
58223;BME280;44020;50.890;15.796;2023-06-26T00:19:16;97799.12;;;15.45;86.15
58223;BME280;44020;50.890;15.796;2023-06-26T00:21:44;97801.20;;;15.42;86.35
58223;BME280;44020;50.890;15.796;2023-06-26T00:24:15;97800.83;;;15.40;86.32
58223;BME280;44020;50.890;15.796;2023-06-26T00:26:47;97799.65;;;15.37;86.53
58223;BME280;44020;50.890;15.796;2023-06-26T00:29:15;97803.20;;;15.33;86.51
58223;BME280;44020;50.890;15.796;2023-06-26T00:31:44;97803.16;;;15.30;86.64
58223;BME280;44020;50.890;15.796;2023-06-26T00:34:11;97802.27;;;15.28;87.08
58223;BME280;44020;50.890;15.796;2023-06-26T00:36:39;97804.23;;;15.28;87.40
58223;BME280;44020;50.890;15.796;2023-06-26T00:39:08;97798.21;;;15.27;87.96
58223;BME280;44020;50.890;15.796;2023-06-26T00:41:38;97797.46;;;15.25;88.08
58223;BME280;44020;50.890;15.796;2023-06-26T00:44:06;97794.89;;;15.22;88.25
58223;BME280;44020;50.890;15.796;2023-06-26T00:46:34;97794.02;;;15.19;88.49
58223;BME280;44020;50.890;15.796;2023-06-26T00:49:03;97788.61;;;15.18;88.74
58223;BME280;44020;50.890;15.796;2023-06-26T00:51:31;97785.24;;;15.16;88.71
58223;BME280;44020;50.890;15.796;2023-06-26T00:53:58;97786.21;;;15.13;88.73
58223;BME280;44020;50.890;15.796;2023-06-26T00:56:27;97787.66;;;15.11;88.82
58223;BME280;44020;50.890;15.796;2023-06-26T00:58:55;97786.29;;;15.10;88.97
58223;BME280;44020;50.890;15.796;2023-06-26T01:01:22;97784.45;;;15.10;89.14
58223;BME280;44020;50.890;15.796;2023-06-26T01:03:53;97785.02;;;15.10;89.05
58223;BME280;44020;50.890;15.796;2023-06-26T01:06:23;97782.55;;;15.08;89.01
58223;BME280;44020;50.890;15.796;2023-06-26T01:08:51;97778.27;;;15.05;88.90
58223;BME280;44020;50.890;15.796;2023-06-26T01:11:19;97777.75;;;15.01;88.79
58223;BME280;44020;50.890;15.796;2023-06-26T01:13:47;97781.67;;;14.97;88.78
58223;BME280;44020;50.890;15.796;2023-06-26T01:16:15;97778.91;;;14.96;89.04
58223;BME280;44020;50.890;15.796;2023-06-26T01:18:46;97777.44;;;14.96;89.20
58223;BME280;44020;50.890;15.796;2023-06-26T01:21:17;97771.48;;;14.97;89.25
58223;BME280;44020;50.890;15.796;2023-06-26T01:24:18;97772.72;;;14.95;89.01
58223;BME280;44020;50.890;15.796;2023-06-26T01:26:50;97772.88;;;14.93;89.02
58223;BME280;44020;50.890;15.796;2023-06-26T01:29:19;97772.67;;;14.90;88.97
58223;BME280;44020;50.890;15.796;2023-06-26T01:31:51;97772.13;;;14.86;89.07
58223;BME280;44020;50.890;15.796;2023-06-26T01:34:19;97770.82;;;14.82;89.24
58223;BME280;44020;50.890;15.796;2023-06-26T01:36:47;97761.54;;;14.80;89.47
58223;BME280;44020;50.890;15.796;2023-06-26T01:39:17;97761.41;;;14.77;89.73
58223;BME280;44020;50.890;15.796;2023-06-26T01:41:45;97757.87;;;14.74;89.98
58223;BME280;44020;50.890;15.796;2023-06-26T01:46:59;97757.61;;;14.69;90.51
58223;BME280;44020;50.890;15.796;2023-06-26T01:49:51;97750.63;;;14.65;90.75
58223;BME280;44020;50.890;15.796;2023-06-26T01:57:47;97750.70;;;14.64;91.32
58223;BME280;44020;50.890;15.796;2023-06-26T02:00:17;97748.20;;;14.64;91.38
58223;BME280;44020;50.890;15.796;2023-06-26T02:02:46;97749.36;;;14.63;91.41
58223;BME280;44020;50.890;15.796;2023-06-26T02:05:14;97748.78;;;14.62;91.55
58223;BME280;44020;50.890;15.796;2023-06-26T02:07:42;97747.08;;;14.61;92.02
58223;BME280;44020;50.890;15.796;2023-06-26T02:10:10;97746.91;;;14.61;92.28
58223;BME280;44020;50.890;15.796;2023-06-26T02:12:39;97748.61;;;14.61;92.56
58223;BME280;44020;50.890;15.796;2023-06-26T02:15:08;97745.55;;;14.62;92.71
58223;BME280;44020;50.890;15.796;2023-06-26T02:17:35;97749.10;;;14.62;92.79
58223;BME280;44020;50.890;15.796;2023-06-26T02:20:04;97748.75;;;14.62;92.77
58223;BME280;44020;50.890;15.796;2023-06-26T02:22:31;97746.31;;;14.61;92.90
58223;BME280;44020;50.890;15.796;2023-06-26T02:25:00;97743.61;;;14.61;93.07
58223;BME280;44020;50.890;15.796;2023-06-26T02:27:27;97741.58;;;14.63;93.05
58223;BME280;44020;50.890;15.796;2023-06-26T02:29:55;97739.81;;;14.62;93.12
58223;BME280;44020;50.890;15.796;2023-06-26T02:32:23;97739.00;;;14.63;93.15
58223;BME280;44020;50.890;15.796;2023-06-26T02:34:51;97737.63;;;14.62;93.12
58223;BME280;44020;50.890;15.796;2023-06-26T02:37:21;97735.98;;;14.61;93.06
58223;BME280;44020;50.890;15.796;2023-06-26T02:39:49;97739.23;;;14.58;92.83
58223;BME280;44020;50.890;15.796;2023-06-26T02:42:16;97735.77;;;14.55;92.78
58223;BME280;44020;50.890;15.796;2023-06-26T02:44:44;97736.07;;;14.51;92.85
58223;BME280;44020;50.890;15.796;2023-06-26T02:47:11;97733.11;;;14.50;92.94
58223;BME280;44020;50.890;15.796;2023-06-26T02:49:39;97733.61;;;14.50;93.15
58223;BME280;44020;50.890;15.796;2023-06-26T02:52:07;97734.48;;;14.51;93.25
58223;BME280;44020;50.890;15.796;2023-06-26T02:54:34;97735.73;;;14.51;93.20
58223;BME280;44020;50.890;15.796;2023-06-26T02:57:02;97734.90;;;14.50;93.33
58223;BME280;44020;50.890;15.796;2023-06-26T02:59:30;97740.64;;;14.50;93.35
58223;BME280;44020;50.890;15.796;2023-06-26T03:01:57;97735.29;;;14.48;93.33
58223;BME280;44020;50.890;15.796;2023-06-26T03:04:25;97731.18;;;14.46;93.37
58223;BME280;44020;50.890;15.796;2023-06-26T03:06:52;97731.17;;;14.44;93.42
58223;BME280;44020;50.890;15.796;2023-06-26T03:09:20;97734.73;;;14.44;93.66
58223;BME280;44020;50.890;15.796;2023-06-26T03:11:47;97730.20;;;14.44;93.92
58223;BME280;44020;50.890;15.796;2023-06-26T03:14:15;97727.77;;;14.46;94.24
58223;BME280;44020;50.890;15.796;2023-06-26T03:16:43;97729.26;;;14.47;94.38
58223;BME280;44020;50.890;15.796;2023-06-26T03:19:11;97728.67;;;14.48;94.47
58223;BME280;44020;50.890;15.796;2023-06-26T03:21:39;97729.98;;;14.49;94.54
58223;BME280;44020;50.890;15.796;2023-06-26T03:24:07;97727.56;;;14.50;94.66
58223;BME280;44020;50.890;15.796;2023-06-26T03:26:34;97727.05;;;14.52;94.89
58223;BME280;44020;50.890;15.796;2023-06-26T03:29:01;97723.19;;;14.53;94.99
58223;BME280;44020;50.890;15.796;2023-06-26T03:31:29;97719.88;;;14.54;95.03
58223;BME280;44020;50.890;15.796;2023-06-26T03:33:57;97718.47;;;14.56;95.19
58223;BME280;44020;50.890;15.796;2023-06-26T03:36:24;97714.35;;;14.58;95.34
58223;BME280;44020;50.890;15.796;2023-06-26T03:38:52;97715.16;;;14.62;95.47
58223;BME280;44020;50.890;15.796;2023-06-26T03:41:23;97711.23;;;14.64;95.55
58223;BME280;44020;50.890;15.796;2023-06-26T03:43:51;97710.40;;;14.65;95.61
58223;BME280;44020;50.890;15.796;2023-06-26T03:46:19;97709.59;;;14.66;95.79
58223;BME280;44020;50.890;15.796;2023-06-26T03:48:46;97715.17;;;14.70;95.97
58223;BME280;44020;50.890;15.796;2023-06-26T03:51:14;97713.05;;;14.74;96.15
58223;BME280;44020;50.890;15.796;2023-06-26T03:53:42;97713.73;;;14.76;96.23
58223;BME280;44020;50.890;15.796;2023-06-26T03:56:09;97711.11;;;14.77;96.38
58223;BME280;44020;50.890;15.796;2023-06-26T03:58:37;97709.86;;;14.79;96.68
58223;BME280;44020;50.890;15.796;2023-06-26T04:01:04;97713.40;;;14.84;96.79
58223;BME280;44020;50.890;15.796;2023-06-26T04:03:32;97709.07;;;14.87;97.10
58223;BME280;44020;50.890;15.796;2023-06-26T04:06:00;97711.95;;;14.90;97.31
58223;BME280;44020;50.890;15.796;2023-06-26T04:08:27;97713.64;;;14.94;97.43
58223;BME280;44020;50.890;15.796;2023-06-26T04:10:55;97711.45;;;14.96;97.41
58223;BME280;44020;50.890;15.796;2023-06-26T04:13:24;97711.13;;;15.00;97.68
58223;BME280;44020;50.890;15.796;2023-06-26T04:15:52;97708.09;;;15.04;97.82
58223;BME280;44020;50.890;15.796;2023-06-26T04:18:20;97710.65;;;15.05;97.93
58223;BME280;44020;50.890;15.796;2023-06-26T04:21:08;97706.80;;;15.08;98.22
58223;BME280;44020;50.890;15.796;2023-06-26T04:23:37;97705.73;;;15.12;98.52
58223;BME280;44020;50.890;15.796;2023-06-26T04:26:05;97704.98;;;15.16;98.66
58223;BME280;44020;50.890;15.796;2023-06-26T04:28:34;97705.15;;;15.23;98.92
58223;BME280;44020;50.890;15.796;2023-06-26T04:31:02;97701.74;;;15.29;98.96
58223;BME280;44020;50.890;15.796;2023-06-26T04:33:34;97705.30;;;15.43;99.23
58223;BME280;44020;50.890;15.796;2023-06-26T04:36:04;97702.85;;;15.62;99.14
58223;BME280;44020;50.890;15.796;2023-06-26T04:38:32;97703.10;;;15.72;98.96
58223;BME280;44020;50.890;15.796;2023-06-26T04:41:01;97705.84;;;15.77;98.82
58223;BME280;44020;50.890;15.796;2023-06-26T04:43:28;97700.71;;;15.80;98.91
58223;BME280;44020;50.890;15.796;2023-06-26T04:45:56;97700.40;;;15.86;99.03
58223;BME280;44020;50.890;15.796;2023-06-26T04:48:24;97700.59;;;15.95;99.13
58223;BME280;44020;50.890;15.796;2023-06-26T04:50:51;97702.81;;;16.04;99.18
58223;BME280;44020;50.890;15.796;2023-06-26T04:53:22;97703.62;;;16.14;99.32
58223;BME280;44020;50.890;15.796;2023-06-26T04:55:51;97700.64;;;16.23;99.48
58223;BME280;44020;50.890;15.796;2023-06-26T04:58:19;97696.82;;;16.32;99.39
58223;BME280;44020;50.890;15.796;2023-06-26T05:00:47;97696.78;;;16.38;99.35
58223;BME280;44020;50.890;15.796;2023-06-26T05:03:17;97699.25;;;16.46;99.46
58223;BME280;44020;50.890;15.796;2023-06-26T05:05:44;97693.99;;;16.54;99.57
58223;BME280;44020;50.890;15.796;2023-06-26T05:08:24;97693.95;;;16.60;99.60
58223;BME280;44020;50.890;15.796;2023-06-26T05:10:53;97693.08;;;16.66;99.81
58223;BME280;44020;50.890;15.796;2023-06-26T05:13:25;97691.96;;;16.70;99.85
58223;BME280;44020;50.890;15.796;2023-06-26T05:15:53;97695.27;;;16.75;99.91
58223;BME280;44020;50.890;15.796;2023-06-26T05:18:21;97688.83;;;16.78;99.95
58223;BME280;44020;50.890;15.796;2023-06-26T05:20:49;97687.95;;;16.80;99.96
58223;BME280;44020;50.890;15.796;2023-06-26T05:23:17;97690.55;;;16.85;100.00
58223;BME280;44020;50.890;15.796;2023-06-26T05:25:45;97687.50;;;16.91;100.00
58223;BME280;44020;50.890;15.796;2023-06-26T05:28:12;97682.66;;;16.94;100.00
58223;BME280;44020;50.890;15.796;2023-06-26T05:30:42;97684.60;;;17.00;100.00
58223;BME280;44020;50.890;15.796;2023-06-26T05:33:14;97679.41;;;17.05;100.00
58223;BME280;44020;50.890;15.796;2023-06-26T05:35:46;97682.52;;;17.12;100.00
58223;BME280;44020;50.890;15.796;2023-06-26T05:38:15;97686.54;;;17.21;100.00
58223;BME280;44020;50.890;15.796;2023-06-26T05:40:43;97685.75;;;17.29;100.00
58223;BME280;44020;50.890;15.796;2023-06-26T05:43:11;97678.58;;;17.34;100.00
58223;BME280;44020;50.890;15.796;2023-06-26T05:45:39;97676.42;;;17.41;100.00
58223;BME280;44020;50.890;15.796;2023-06-26T05:48:07;97677.40;;;17.48;100.00
58223;BME280;44020;50.890;15.796;2023-06-26T05:50:35;97676.89;;;17.53;100.00
58223;BME280;44020;50.890;15.796;2023-06-26T05:53:03;97676.63;;;17.57;100.00
58223;BME280;44020;50.890;15.796;2023-06-26T05:55:31;97680.34;;;17.62;100.00
58223;BME280;44020;50.890;15.796;2023-06-26T05:57:59;97681.83;;;17.68;100.00
58223;BME280;44020;50.890;15.796;2023-06-26T06:00:27;97676.77;;;17.76;100.00
58223;BME280;44020;50.890;15.796;2023-06-26T06:02:55;97676.37;;;17.89;100.00
58223;BME280;44020;50.890;15.796;2023-06-26T06:05:22;97676.02;;;18.03;100.00
58223;BME280;44020;50.890;15.796;2023-06-26T06:07:50;97671.58;;;18.17;100.00
58223;BME280;44020;50.890;15.796;2023-06-26T06:10:17;97670.89;;;18.29;99.87
58223;BME280;44020;50.890;15.796;2023-06-26T06:12:45;97668.84;;;18.40;99.56
58223;BME280;44020;50.890;15.796;2023-06-26T06:15:12;97664.20;;;18.50;99.05
58223;BME280;44020;50.890;15.796;2023-06-26T06:17:40;97664.86;;;18.61;98.83
58223;BME280;44020;50.890;15.796;2023-06-26T06:20:08;97663.53;;;18.74;98.63
58223;BME280;44020;50.890;15.796;2023-06-26T06:22:36;97662.80;;;18.86;97.97
58223;BME280;44020;50.890;15.796;2023-06-26T06:25:03;97659.36;;;18.99;97.79
58223;BME280;44020;50.890;15.796;2023-06-26T06:27:30;97659.23;;;19.10;96.92
58223;BME280;44020;50.890;15.796;2023-06-26T06:29:58;97658.65;;;19.17;96.09
58223;BME280;44020;50.890;15.796;2023-06-26T06:32:25;97655.09;;;19.22;95.83
58223;BME280;44020;50.890;15.796;2023-06-26T06:34:52;97651.00;;;19.31;95.35
58223;BME280;44020;50.890;15.796;2023-06-26T06:37:19;97649.84;;;19.41;94.82
58223;BME280;44020;50.890;15.796;2023-06-26T06:39:47;97646.23;;;19.48;94.24
58223;BME280;44020;50.890;15.796;2023-06-26T06:42:14;97650.08;;;19.54;94.29
58223;BME280;44020;50.890;15.796;2023-06-26T06:44:41;97649.00;;;19.60;93.55
58223;BME280;44020;50.890;15.796;2023-06-26T06:47:08;97651.83;;;19.67;92.99
58223;BME280;44020;50.890;15.796;2023-06-26T06:49:35;97649.36;;;19.75;92.72
58223;BME280;44020;50.890;15.796;2023-06-26T06:52:03;97646.02;;;19.83;91.95
58223;BME280;44020;50.890;15.796;2023-06-26T06:54:30;97643.05;;;19.87;91.30
58223;BME280;44020;50.890;15.796;2023-06-26T06:56:58;97641.77;;;19.92;90.60
58223;BME280;44020;50.890;15.796;2023-06-26T06:59:25;97642.14;;;20.00;90.08
58223;BME280;44020;50.890;15.796;2023-06-26T07:01:52;97641.39;;;20.09;89.48
58223;BME280;44020;50.890;15.796;2023-06-26T07:04:19;97643.52;;;20.17;88.63
58223;BME280;44020;50.890;15.796;2023-06-26T07:06:47;97641.54;;;20.22;87.90
58223;BME280;44020;50.890;15.796;2023-06-26T07:09:14;97640.37;;;20.28;87.46
58223;BME280;44020;50.890;15.796;2023-06-26T07:11:41;97639.18;;;20.34;86.78
58223;BME280;44020;50.890;15.796;2023-06-26T07:14:08;97640.24;;;20.44;85.99
58223;BME280;44020;50.890;15.796;2023-06-26T07:16:36;97641.52;;;20.55;85.56
58223;BME280;44020;50.890;15.796;2023-06-26T07:19:04;97639.64;;;20.67;84.64
58223;BME280;44020;50.890;15.796;2023-06-26T07:21:31;97637.09;;;20.77;83.61
58223;BME280;44020;50.890;15.796;2023-06-26T07:23:58;97635.50;;;20.84;82.84
58223;BME280;44020;50.890;15.796;2023-06-26T07:26:25;97632.19;;;20.93;82.19
58223;BME280;44020;50.890;15.796;2023-06-26T07:28:52;97634.16;;;21.03;81.25
58223;BME280;44020;50.890;15.796;2023-06-26T07:31:21;97628.33;;;21.11;81.20
58223;BME280;44020;50.890;15.796;2023-06-26T07:33:49;97630.13;;;21.17;80.20
58223;BME280;44020;50.890;15.796;2023-06-26T07:36:16;97622.25;;;21.26;79.86
58223;BME280;44020;50.890;15.796;2023-06-26T07:38:43;97621.19;;;21.35;79.35
58223;BME280;44020;50.890;15.796;2023-06-26T07:41:10;97620.13;;;21.41;78.56
58223;BME280;44020;50.890;15.796;2023-06-26T07:43:38;97618.49;;;21.48;78.54
58223;BME280;44020;50.890;15.796;2023-06-26T07:46:05;97619.03;;;21.54;77.85
58223;BME280;44020;50.890;15.796;2023-06-26T07:48:32;97617.91;;;21.60;77.01
58223;BME280;44020;50.890;15.796;2023-06-26T07:50:59;97618.92;;;21.66;75.79
58223;BME280;44020;50.890;15.796;2023-06-26T07:53:26;97615.93;;;21.71;75.37
58223;BME280;44020;50.890;15.796;2023-06-26T07:55:53;97614.34;;;21.75;74.67
58223;BME280;44020;50.890;15.796;2023-06-26T07:58:20;97613.45;;;21.83;74.13
58223;BME280;44020;50.890;15.796;2023-06-26T08:00:48;97610.69;;;21.93;74.33
58223;BME280;44020;50.890;15.796;2023-06-26T08:03:16;97608.81;;;21.98;73.23
58223;BME280;44020;50.890;15.796;2023-06-26T08:05:43;97604.95;;;22.04;73.47
58223;BME280;44020;50.890;15.796;2023-06-26T08:08:11;97600.73;;;22.14;73.78
58223;BME280;44020;50.890;15.796;2023-06-26T08:10:38;97603.67;;;22.24;73.15
58223;BME280;44020;50.890;15.796;2023-06-26T08:13:06;97603.30;;;22.29;71.94
58223;BME280;44020;50.890;15.796;2023-06-26T08:15:33;97599.52;;;22.33;71.33
58223;BME280;44020;50.890;15.796;2023-06-26T08:18:01;97601.93;;;22.40;70.65
58223;BME280;44020;50.890;15.796;2023-06-26T08:20:28;97595.23;;;22.45;69.59
58223;BME280;44020;50.890;15.796;2023-06-26T08:22:56;97598.42;;;22.50;69.21
58223;BME280;44020;50.890;15.796;2023-06-26T08:25:24;97596.83;;;22.57;68.57
58223;BME280;44020;50.890;15.796;2023-06-26T08:27:51;97595.52;;;22.65;67.85
58223;BME280;44020;50.890;15.796;2023-06-26T08:30:19;97601.20;;;22.75;67.16
58223;BME280;44020;50.890;15.796;2023-06-26T08:32:47;97600.74;;;22.83;66.40
58223;BME280;44020;50.890;15.796;2023-06-26T08:35:14;97599.04;;;22.91;65.97
58223;BME280;44020;50.890;15.796;2023-06-26T08:37:42;97597.77;;;23.00;66.26
58223;BME280;44020;50.890;15.796;2023-06-26T08:40:10;97594.15;;;23.10;66.19
58223;BME280;44020;50.890;15.796;2023-06-26T08:42:37;97590.84;;;23.14;64.88
58223;BME280;44020;50.890;15.796;2023-06-26T08:45:05;97591.05;;;23.17;64.43
58223;BME280;44020;50.890;15.796;2023-06-26T08:47:34;97590.34;;;23.20;64.15
58223;BME280;44020;50.890;15.796;2023-06-26T08:50:10;97592.73;;;23.25;63.53
58223;BME280;44020;50.890;15.796;2023-06-26T08:52:54;97589.54;;;23.27;62.61
58223;BME280;44020;50.890;15.796;2023-06-26T08:55:27;97588.04;;;23.32;62.15
58223;BME280;44020;50.890;15.796;2023-06-26T08:57:55;97584.19;;;23.36;61.68
58223;BME280;44020;50.890;15.796;2023-06-26T09:00:23;97583.41;;;23.44;61.63
58223;BME280;44020;50.890;15.796;2023-06-26T09:02:51;97586.02;;;23.54;61.57
58223;BME280;44020;50.890;15.796;2023-06-26T09:05:19;97578.67;;;23.59;60.52
58223;BME280;44020;50.890;15.796;2023-06-26T09:07:46;97575.80;;;23.61;59.86
58223;BME280;44020;50.890;15.796;2023-06-26T09:10:14;97572.73;;;23.60;59.00
58223;BME280;44020;50.890;15.796;2023-06-26T09:12:46;97568.75;;;23.67;59.70
58223;BME280;44020;50.890;15.796;2023-06-26T09:15:14;97562.23;;;23.76;59.68
58223;BME280;44020;50.890;15.796;2023-06-26T09:17:42;97565.46;;;23.84;60.50
58223;BME280;44020;50.890;15.796;2023-06-26T09:20:10;97561.66;;;23.95;59.92
58223;BME280;44020;50.890;15.796;2023-06-26T09:22:41;97556.98;;;24.00;58.89
58223;BME280;44020;50.890;15.796;2023-06-26T09:25:09;97554.60;;;24.04;58.41
58223;BME280;44020;50.890;15.796;2023-06-26T09:27:37;97557.63;;;24.15;59.47
58223;BME280;44020;50.890;15.796;2023-06-26T09:30:05;97554.70;;;24.26;59.19
58223;BME280;44020;50.890;15.796;2023-06-26T09:32:36;97553.23;;;24.32;59.31
58223;BME280;44020;50.890;15.796;2023-06-26T09:35:04;97551.63;;;24.37;58.75
58223;BME280;44020;50.890;15.796;2023-06-26T09:37:34;97549.42;;;24.41;58.35
58223;BME280;44020;50.890;15.796;2023-06-26T09:40:03;97545.36;;;24.45;58.41
58223;BME280;44020;50.890;15.796;2023-06-26T09:42:31;97545.80;;;24.51;58.08
58223;BME280;44020;50.890;15.796;2023-06-26T09:44:58;97547.11;;;24.60;58.54
58223;BME280;44020;50.890;15.796;2023-06-26T09:47:25;97549.14;;;24.72;58.99
58223;BME280;44020;50.890;15.796;2023-06-26T09:49:52;97546.64;;;24.83;58.45
58223;BME280;44020;50.890;15.796;2023-06-26T09:52:26;97542.81;;;24.92;58.73
58223;BME280;44020;50.890;15.796;2023-06-26T09:55:08;97541.05;;;24.99;57.37
58223;BME280;44020;50.890;15.796;2023-06-26T09:57:36;97538.47;;;25.06;56.69
58223;BME280;44020;50.890;15.796;2023-06-26T10:00:03;97537.92;;;25.15;56.63
58223;BME280;44020;50.890;15.796;2023-06-26T10:02:31;97536.33;;;25.25;55.94
58223;BME280;44020;50.890;15.796;2023-06-26T10:04:59;97534.60;;;25.32;55.95
58223;BME280;44020;50.890;15.796;2023-06-26T10:07:26;97531.14;;;25.43;56.20
58223;BME280;44020;50.890;15.796;2023-06-26T10:09:55;97533.72;;;25.50;56.34
58223;BME280;44020;50.890;15.796;2023-06-26T10:12:28;97530.48;;;25.55;55.25
58223;BME280;44020;50.890;15.796;2023-06-26T10:14:57;97526.89;;;25.63;55.06
58223;BME280;44020;50.890;15.796;2023-06-26T10:17:28;97524.50;;;25.75;55.31
58223;BME280;44020;50.890;15.796;2023-06-26T10:19:58;97521.39;;;25.77;54.40
58223;BME280;44020;50.890;15.796;2023-06-26T10:22:33;97522.11;;;25.72;53.89
58223;BME280;44020;50.890;15.796;2023-06-26T10:25:05;97523.45;;;25.66;53.88
58223;BME280;44020;50.890;15.796;2023-06-26T10:27:42;97527.60;;;25.64;54.16
58223;BME280;44020;50.890;15.796;2023-06-26T10:30:14;97522.14;;;25.57;53.31
58223;BME280;44020;50.890;15.796;2023-06-26T10:32:43;97516.12;;;25.49;53.11
58223;BME280;44020;50.890;15.796;2023-06-26T10:35:12;97516.21;;;25.50;53.39
58223;BME280;44020;50.890;15.796;2023-06-26T10:37:44;97516.92;;;25.58;53.88
58223;BME280;44020;50.890;15.796;2023-06-26T10:40:12;97511.48;;;25.70;54.33
58223;BME280;44020;50.890;15.796;2023-06-26T10:42:40;97510.61;;;25.71;53.53
58223;BME280;44020;50.890;15.796;2023-06-26T10:45:20;97509.55;;;25.72;53.49
58223;BME280;44020;50.890;15.796;2023-06-26T10:47:52;97505.90;;;25.78;53.72
58223;BME280;44020;50.890;15.796;2023-06-26T10:50:23;97499.83;;;25.87;53.99
58223;BME280;44020;50.890;15.796;2023-06-26T10:55:41;97492.15;;;25.92;53.97
58223;BME280;44020;50.890;15.796;2023-06-26T10:58:29;97487.23;;;25.97;53.90
58223;BME280;44020;50.890;15.796;2023-06-26T11:03:39;97485.52;;;26.19;54.82
58223;BME280;44020;50.890;15.796;2023-06-26T11:06:10;97484.94;;;26.14;54.93
58223;BME280;44020;50.890;15.796;2023-06-26T11:09:09;97482.22;;;26.07;54.72
58223;BME280;44020;50.890;15.796;2023-06-26T11:14:22;97479.86;;;26.05;55.24
58223;BME280;44020;50.890;15.796;2023-06-26T11:16:50;97479.86;;;26.08;55.85
58223;BME280;44020;50.890;15.796;2023-06-26T11:19:19;97473.69;;;26.19;56.08
58223;BME280;44020;50.890;15.796;2023-06-26T11:21:46;97467.34;;;26.33;56.18
58223;BME280;44020;50.890;15.796;2023-06-26T11:24:14;97468.01;;;26.51;55.96
58223;BME280;44020;50.890;15.796;2023-06-26T11:26:43;97461.88;;;26.66;55.69
58223;BME280;44020;50.890;15.796;2023-06-26T11:29:11;97461.61;;;26.77;54.91
58223;BME280;44020;50.890;15.796;2023-06-26T11:31:41;97462.59;;;26.85;54.61
58223;BME280;44020;50.890;15.796;2023-06-26T11:34:10;97464.23;;;26.97;54.61
58223;BME280;44020;50.890;15.796;2023-06-26T11:36:39;97462.83;;;27.06;54.10
58223;BME280;44020;50.890;15.796;2023-06-26T11:39:09;97458.87;;;27.13;53.70
58223;BME280;44020;50.890;15.796;2023-06-26T11:41:38;97459.08;;;27.23;52.61
58223;BME280;44020;50.890;15.796;2023-06-26T11:44:09;97456.44;;;27.35;52.07
58223;BME280;44020;50.890;15.796;2023-06-26T11:46:37;97450.36;;;27.49;51.90
58223;BME280;44020;50.890;15.796;2023-06-26T11:49:07;97454.11;;;27.65;51.87
58223;BME280;44020;50.890;15.796;2023-06-26T11:51:35;97449.44;;;27.81;50.80
58223;BME280;44020;50.890;15.796;2023-06-26T11:54:05;97450.02;;;27.98;50.80
58223;BME280;44020;50.890;15.796;2023-06-26T11:56:32;97448.06;;;28.17;50.78
58223;BME280;44020;50.890;15.796;2023-06-26T11:59:03;97447.31;;;28.32;49.71
58223;BME280;44020;50.890;15.796;2023-06-26T12:01:35;97445.02;;;28.41;48.92
58223;BME280;44020;50.890;15.796;2023-06-26T12:04:04;97443.14;;;28.46;48.57
58223;BME280;44020;50.890;15.796;2023-06-26T12:06:34;97446.58;;;28.58;48.64
58223;BME280;44020;50.890;15.796;2023-06-26T12:09:04;97442.70;;;28.61;48.00
58223;BME280;44020;50.890;15.796;2023-06-26T12:11:33;97444.70;;;28.62;47.64
58223;BME280;44020;50.890;15.796;2023-06-26T12:14:01;97441.84;;;28.72;47.80
58223;BME280;44020;50.890;15.796;2023-06-26T12:16:30;97445.13;;;28.70;47.85
58223;BME280;44020;50.890;15.796;2023-06-26T12:19:04;97444.73;;;28.66;47.92
58223;BME280;44020;50.890;15.796;2023-06-26T12:24:06;97446.22;;;28.39;47.72
58223;BME280;44020;50.890;15.796;2023-06-26T12:26:34;97446.21;;;28.40;48.49
58223;BME280;44020;50.890;15.796;2023-06-26T12:29:07;97445.51;;;28.48;47.91
58223;BME280;44020;50.890;15.796;2023-06-26T12:31:36;97437.97;;;28.61;48.53
58223;BME280;44020;50.890;15.796;2023-06-26T12:34:14;97435.52;;;28.74;48.53
58223;BME280;44020;50.890;15.796;2023-06-26T12:39:21;97434.55;;;28.71;46.30
58223;BME280;44020;50.890;15.796;2023-06-26T12:41:52;97434.77;;;28.61;45.96
58223;BME280;44020;50.890;15.796;2023-06-26T12:44:25;97428.77;;;28.54;45.33
58223;BME280;44020;50.890;15.796;2023-06-26T12:46:57;97429.95;;;28.54;45.00
58223;BME280;44020;50.890;15.796;2023-06-26T12:49:35;97425.58;;;28.60;45.31
58223;BME280;44020;50.890;15.796;2023-06-26T12:52:08;97423.70;;;28.76;45.80
58223;BME280;44020;50.890;15.796;2023-06-26T12:54:37;97418.73;;;28.96;46.16
58223;BME280;44020;50.890;15.796;2023-06-26T12:57:06;97415.88;;;29.15;45.03
58223;BME280;44020;50.890;15.796;2023-06-26T12:59:36;97412.63;;;29.14;43.70
58223;BME280;44020;50.890;15.796;2023-06-26T13:02:04;97404.89;;;29.20;43.61
58223;BME280;44020;50.890;15.796;2023-06-26T13:04:32;97409.61;;;29.31;43.82
58223;BME280;44020;50.890;15.796;2023-06-26T13:07:00;97406.23;;;29.48;43.65
58223;BME280;44020;50.890;15.796;2023-06-26T13:09:32;97402.69;;;29.66;43.67
58223;BME280;44020;50.890;15.796;2023-06-26T13:12:01;97395.25;;;29.82;43.50
58223;BME280;44020;50.890;15.796;2023-06-26T13:14:31;97389.45;;;29.96;42.26
58223;BME280;44020;50.890;15.796;2023-06-26T13:17:00;97387.56;;;30.04;42.57
58223;BME280;44020;50.890;15.796;2023-06-26T13:19:27;97383.41;;;30.10;42.04
58223;BME280;44020;50.890;15.796;2023-06-26T13:21:54;97382.23;;;30.15;42.08